createdAt,value
2023-02-02T00:01:56.527Z,2.23
2023-02-02T00:04:40.278Z,2.44
2023-02-02T00:07:23.952Z,2.44
2023-02-02T00:10:08.537Z,2.45
2023-02-02T00:12:52.321Z,2.10
2023-02-02T00:15:37.549Z,2.09
2023-02-02T00:18:21.360Z,2.53
2023-02-02T00:21:05.326Z,2.33
2023-02-02T00:23:48.996Z,2.60
2023-02-02T00:26:32.944Z,2.63
2023-02-02T00:29:19.175Z,2.57
2023-02-02T00:32:06.319Z,2.49
2023-02-02T00:34:50.929Z,2.77
2023-02-02T00:37:34.821Z,3.00
2023-02-02T00:40:19.536Z,3.04
2023-02-02T00:43:03.311Z,2.97
2023-02-02T00:45:46.733Z,3.08
2023-02-02T00:48:31.988Z,3.10
2023-02-02T00:51:15.734Z,2.62
2023-02-02T00:53:59.595Z,2.77
2023-02-02T00:56:44.221Z,2.88
2023-02-02T00:59:28.751Z,3.31
2023-02-02T01:02:13.123Z,3.57
2023-02-02T01:04:58.402Z,3.58
2023-02-02T01:07:42.169Z,3.52
2023-02-02T01:10:26.078Z,3.61
2023-02-02T01:13:11.148Z,3.73
2023-02-02T01:15:56.839Z,3.78
2023-02-02T01:18:40.654Z,3.56
2023-02-02T01:21:25.722Z,3.84
2023-02-02T01:24:10.059Z,3.79
2023-02-02T01:26:53.894Z,3.53
2023-02-02T01:29:37.698Z,3.62
2023-02-02T01:32:21.969Z,3.52
2023-02-02T01:35:06.237Z,3.29
2023-02-02T01:37:51.350Z,3.46
2023-02-02T01:40:34.988Z,3.47
2023-02-02T01:43:25.148Z,3.39
2023-02-02T01:46:12.301Z,3.37
2023-02-02T01:49:05.066Z,3.25
2023-02-02T01:51:51.524Z,3.35
2023-02-02T01:54:39.787Z,3.31
2023-02-02T01:57:29.772Z,3.15
2023-02-02T02:00:16.826Z,3.15
2023-02-02T02:03:03.623Z,2.80
2023-02-02T02:05:52.897Z,2.92
2023-02-02T02:08:40.328Z,2.78
2023-02-02T02:11:26.303Z,2.68
2023-02-02T02:14:30.536Z,2.75
2023-02-02T02:17:24.760Z,2.51
2023-02-02T02:20:50.819Z,2.66
2023-02-02T02:24:52.689Z,2.95
2023-02-02T02:28:14.360Z,2.77
2023-02-02T02:31:29.379Z,2.68
2023-02-02T02:34:22.966Z,2.62
2023-02-02T02:37:11.710Z,1.76
2023-02-02T02:40:01.553Z,2.33
2023-02-02T02:42:51.114Z,2.35
2023-02-02T02:45:36.656Z,2.44
2023-02-02T02:48:20.437Z,2.28
2023-02-02T02:51:30.079Z,2.24
2023-02-02T02:54:16.440Z,0.59
2023-02-02T02:57:17.074Z,1.80
2023-02-02T03:00:10.003Z,1.75
2023-02-02T03:03:03.271Z,1.67
2023-02-02T03:05:55.251Z,1.73
2023-02-02T03:08:46.726Z,1.71
2023-02-02T03:11:30.702Z,1.78
2023-02-02T03:14:14.578Z,1.80
2023-02-02T03:16:58.343Z,1.73
2023-02-02T03:19:42.098Z,1.98
2023-02-02T03:22:25.927Z,2.08
2023-02-02T03:25:12.097Z,2.28
2023-02-02T03:27:57.462Z,2.40
2023-02-02T03:30:43.256Z,2.61
2023-02-02T03:33:27.197Z,2.53
2023-02-02T03:36:11.275Z,2.61
2023-02-02T03:38:54.986Z,2.74
2023-02-02T03:41:40.127Z,2.43
2023-02-02T03:44:23.834Z,2.64
2023-02-02T03:47:07.548Z,2.62
2023-02-02T03:49:51.245Z,2.61
2023-02-02T03:52:35.023Z,2.81
2023-02-02T03:55:18.829Z,2.86
2023-02-02T03:58:04.068Z,2.74
2023-02-02T04:00:47.805Z,2.59
2023-02-02T04:03:31.879Z,2.65
2023-02-02T04:06:15.554Z,2.65
2023-02-02T04:08:59.196Z,2.62
2023-02-02T04:11:43.030Z,2.28
2023-02-02T04:14:28.237Z,2.28
2023-02-02T04:17:12.088Z,2.44
2023-02-02T04:19:58.288Z,2.33
2023-02-02T04:22:42.063Z,2.27
2023-02-02T04:25:26.226Z,2.21
2023-02-02T04:28:10.210Z,2.03
2023-02-02T04:30:56.391Z,2.07
2023-02-02T04:33:40.290Z,2.07
2023-02-02T04:36:24.746Z,2.13
2023-02-02T04:39:08.487Z,1.72
2023-02-02T04:41:52.156Z,1.75
2023-02-02T04:44:35.957Z,1.81
2023-02-02T04:47:21.080Z,1.90
2023-02-02T04:50:05.128Z,1.92
2023-02-02T04:52:48.845Z,1.84
2023-02-02T04:55:32.717Z,1.92
2023-02-02T04:58:16.590Z,1.85
2023-02-02T05:01:00.307Z,1.69
2023-02-02T05:03:46.025Z,1.77
2023-02-02T05:06:29.841Z,1.86
2023-02-02T05:09:15.097Z,1.82
2023-02-02T05:11:58.923Z,1.79
2023-02-02T05:14:42.688Z,1.72
2023-02-02T05:17:26.339Z,1.83
2023-02-02T05:20:13.041Z,1.62
2023-02-02T05:22:56.685Z,1.71
2023-02-02T05:25:40.391Z,1.48
2023-02-02T05:28:25.188Z,1.43
2023-02-02T05:31:09.100Z,1.64
2023-02-02T05:33:52.867Z,1.68
2023-02-02T05:36:38.114Z,1.36
2023-02-02T05:39:21.852Z,1.40
2023-02-02T05:42:05.773Z,1.78
2023-02-02T05:44:49.529Z,1.57
2023-02-02T05:47:35.768Z,1.60
2023-02-02T05:50:19.451Z,1.02
2023-02-02T05:53:05.357Z,1.81
2023-02-02T05:55:49.073Z,1.92
2023-02-02T05:58:32.811Z,2.15
2023-02-02T06:01:17.087Z,2.13
2023-02-02T06:04:00.944Z,2.17
2023-02-02T06:06:45.017Z,2.04
2023-02-02T06:09:30.047Z,1.88
2023-02-02T06:12:13.887Z,2.19
2023-02-02T06:14:57.668Z,2.40
2023-02-02T06:17:41.637Z,2.19
2023-02-02T06:20:25.643Z,2.22
2023-02-02T06:23:09.665Z,2.49
2023-02-02T06:25:55.020Z,2.76
2023-02-02T06:28:38.865Z,2.97
2023-02-02T06:31:23.404Z,3.22
2023-02-02T06:34:08.515Z,3.50
2023-02-02T06:36:52.438Z,3.51
2023-02-02T06:39:36.449Z,3.30
2023-02-02T06:42:22.196Z,3.38
2023-02-02T06:45:07.929Z,4.06
2023-02-02T06:47:51.903Z,3.60
2023-02-02T06:50:35.923Z,3.72
2023-02-02T06:53:23.248Z,3.71
2023-02-02T06:56:09.317Z,4.09
2023-02-02T06:58:54.643Z,3.89
2023-02-02T07:01:38.573Z,3.82
2023-02-02T07:04:22.566Z,3.74
2023-02-02T07:07:06.669Z,3.56
2023-02-02T07:09:57.751Z,3.42
2023-02-02T07:12:42.517Z,3.90
2023-02-02T07:15:27.983Z,4.07
2023-02-02T07:18:11.997Z,4.15
2023-02-02T07:20:55.885Z,3.90
2023-02-02T07:23:39.805Z,4.02
2023-02-02T07:26:23.873Z,4.33
2023-02-02T07:29:07.932Z,4.32
2023-02-02T07:31:53.421Z,4.65
2023-02-02T07:34:39.512Z,4.57
2023-02-02T07:37:23.545Z,5.04
2023-02-02T07:40:08.870Z,5.23
2023-02-02T07:42:52.853Z,4.86
2023-02-02T07:45:37.818Z,5.47
2023-02-02T07:48:23.511Z,5.43
2023-02-02T07:51:08.984Z,5.40
2023-02-02T07:53:54.600Z,5.16
2023-02-02T07:56:39.978Z,5.15
2023-02-02T07:59:24.095Z,5.46
2023-02-02T08:02:08.067Z,5.62
2023-02-02T08:04:53.424Z,5.47
2023-02-02T08:07:37.427Z,5.43
2023-02-02T08:10:21.697Z,5.70
2023-02-02T08:13:06.005Z,6.01
2023-02-02T08:15:49.976Z,5.82
2023-02-02T08:18:34.276Z,5.71
2023-02-02T08:21:20.974Z,6.01
2023-02-02T08:24:05.791Z,6.23
2023-02-02T08:26:49.665Z,6.04
2023-02-02T08:29:33.468Z,6.30
2023-02-02T08:32:17.317Z,6.26
2023-02-02T08:35:01.222Z,6.38
2023-02-02T08:37:50.604Z,6.87
2023-02-02T08:40:34.608Z,6.71
2023-02-02T08:43:18.489Z,6.90
2023-02-02T08:46:05.577Z,7.07
2023-02-02T08:48:49.941Z,7.37
2023-02-02T08:51:33.873Z,7.32
2023-02-02T08:54:18.971Z,6.94
2023-02-02T08:57:02.783Z,7.16
2023-02-02T08:59:46.529Z,7.34
2023-02-02T09:02:30.339Z,7.48
2023-02-02T09:05:14.119Z,7.28
2023-02-02T09:07:58.483Z,7.34
2023-02-02T09:10:44.465Z,7.35
2023-02-02T09:13:28.311Z,7.23
2023-02-02T09:16:14.025Z,7.24
2023-02-02T09:18:58.424Z,7.26
2023-02-02T09:21:42.342Z,6.87
2023-02-02T09:24:26.105Z,7.07
2023-02-02T09:27:11.193Z,6.79
2023-02-02T09:29:55.002Z,7.08
2023-02-02T09:32:38.782Z,7.24
2023-02-02T09:35:23.185Z,6.92
2023-02-02T09:38:07.613Z,6.92
2023-02-02T09:40:51.504Z,7.04
2023-02-02T09:43:51.759Z,7.08
2023-02-02T09:46:47.445Z,7.10
2023-02-02T09:49:39.050Z,7.34
2023-02-02T09:52:28.104Z,7.74
2023-02-02T09:55:19.463Z,7.78
2023-02-02T09:58:11.872Z,7.12
2023-02-02T10:01:02.712Z,7.31
2023-02-02T10:03:59.035Z,7.36
2023-02-02T10:06:44.786Z,6.95
2023-02-02T10:09:39.045Z,7.72
2023-02-02T10:12:33.172Z,7.53
2023-02-02T10:15:24.788Z,7.72
2023-02-02T10:18:19.644Z,8.16
2023-02-02T10:21:07.359Z,7.84
2023-02-02T10:23:51.444Z,8.39
2023-02-02T10:26:40.737Z,7.72
2023-02-02T10:29:49.171Z,8.10
2023-02-02T10:32:42.597Z,8.17
2023-02-02T10:35:37.336Z,7.97
2023-02-02T10:38:29.649Z,7.92
2023-02-02T10:41:21.169Z,7.75
2023-02-02T10:44:15.759Z,7.54
2023-02-02T10:47:02.388Z,7.61
2023-02-02T10:49:46.996Z,8.04
2023-02-02T10:52:34.597Z,7.98
2023-02-02T10:55:29.454Z,8.21
2023-02-02T10:58:24.025Z,8.38
2023-02-02T11:01:11.865Z,8.62
2023-02-02T11:04:09.832Z,8.50
2023-02-02T11:06:53.865Z,8.92
2023-02-02T11:09:42.609Z,8.51
2023-02-02T11:12:32.460Z,8.39
2023-02-02T11:15:27.337Z,8.51
2023-02-02T11:18:16.743Z,8.96
2023-02-02T11:21:00.711Z,8.72
2023-02-02T11:23:53.707Z,8.85
2023-02-02T11:26:51.572Z,8.40
2023-02-02T11:29:43.268Z,9.07
2023-02-02T11:32:30.155Z,8.91
2023-02-02T11:35:21.101Z,9.27
2023-02-02T11:38:12.113Z,9.58
2023-02-02T11:41:02.491Z,8.85
2023-02-02T11:43:53.445Z,8.45
2023-02-02T11:46:40.081Z,9.27
2023-02-02T11:49:25.513Z,9.54
2023-02-02T11:52:18.568Z,9.15
2023-02-02T11:55:10.783Z,9.48
2023-02-02T11:58:20.368Z,9.19
2023-02-02T12:01:06.942Z,8.71
2023-02-02T12:03:51.950Z,8.86
2023-02-02T12:06:38.411Z,9.43
2023-02-02T12:09:25.033Z,8.92
2023-02-02T12:12:17.909Z,9.29
2023-02-02T12:15:09.990Z,8.65
2023-02-02T12:18:03.831Z,9.36
2023-02-02T12:20:58.469Z,9.63
2023-02-02T12:23:55.786Z,9.81
2023-02-02T12:26:42.777Z,9.35
2023-02-02T12:29:45.717Z,9.33
2023-02-02T12:32:45.217Z,9.22
2023-02-02T12:36:06.141Z,9.47
2023-02-02T12:39:19.451Z,9.53
2023-02-02T12:42:27.601Z,9.47
2023-02-02T12:45:39.350Z,9.18
2023-02-02T12:48:33.683Z,9.77
2023-02-02T12:51:35.334Z,9.66
2023-02-02T12:54:47.605Z,9.70
2023-02-02T12:57:44.395Z,9.22
2023-02-02T13:00:55.606Z,9.25
2023-02-02T13:04:15.738Z,9.25
2023-02-02T13:07:27.057Z,9.25
2023-02-02T13:10:19.949Z,9.34
2023-02-02T13:13:08.921Z,9.42
2023-02-02T13:15:56.402Z,9.61
2023-02-02T13:18:49.436Z,9.68
2023-02-02T13:21:36.093Z,9.81
2023-02-02T13:24:30.805Z,9.90
2023-02-02T13:27:19.075Z,9.96
2023-02-02T13:30:06.285Z,9.76
2023-02-02T13:32:53.629Z,9.85
2023-02-02T13:35:44.591Z,9.79
2023-02-02T13:38:30.573Z,9.58
2023-02-02T13:41:17.300Z,9.42
2023-02-02T13:44:05.233Z,9.54
2023-02-02T13:46:57.288Z,9.14
2023-02-02T13:49:45.665Z,9.17
2023-02-02T13:53:00.116Z,9.03
2023-02-02T13:56:10.862Z,8.93
2023-02-02T13:59:10.650Z,8.81
2023-02-02T14:01:55.452Z,9.16
2023-02-02T14:04:40.333Z,8.80
2023-02-02T14:07:41.769Z,8.93
2023-02-02T14:10:31.676Z,9.18
2023-02-02T14:13:39.304Z,9.32
2023-02-02T14:16:43.804Z,9.01
2023-02-02T14:19:49.612Z,9.12
2023-02-02T14:22:42.191Z,9.00
2023-02-02T14:25:51.793Z,9.08
2023-02-02T14:28:44.563Z,9.03
2023-02-02T14:31:43.463Z,9.24
2023-02-02T14:34:35.826Z,9.10
2023-02-02T14:37:44.136Z,9.19
2023-02-02T14:40:48.750Z,8.72
2023-02-02T14:43:45.463Z,8.31
2023-02-02T14:46:39.680Z,8.38
2023-02-02T14:49:27.577Z,7.29
2023-02-02T14:52:23.288Z,6.26
2023-02-02T14:55:17.630Z,5.49
2023-02-02T14:58:06.079Z,4.40
2023-02-02T15:00:58.155Z,4.31
2023-02-02T15:03:53.955Z,4.59
2023-02-02T15:06:40.726Z,4.14
2023-02-02T15:09:42.930Z,3.97
2023-02-02T15:12:34.335Z,3.97
2023-02-02T15:15:23.415Z,3.82
2023-02-02T15:18:16.961Z,4.10
2023-02-02T15:21:07.843Z,4.11
2023-02-02T15:23:51.926Z,4.19
2023-02-02T15:26:42.939Z,4.43
2023-02-02T15:29:36.732Z,4.73
2023-02-02T15:32:28.194Z,4.57
2023-02-02T15:35:20.222Z,4.44
2023-02-02T15:38:14.066Z,4.61
2023-02-02T15:40:58.049Z,4.63
2023-02-02T15:43:42.154Z,4.46
2023-02-02T15:46:27.876Z,5.06
2023-02-02T15:49:35.653Z,4.95
2023-02-02T15:52:26.429Z,4.87
2023-02-02T15:55:22.087Z,4.82
2023-02-02T15:58:31.218Z,5.12
2023-02-02T16:01:18.534Z,4.99
2023-02-02T16:04:20.411Z,5.01
2023-02-02T16:07:05.527Z,4.79
2023-02-02T16:09:49.548Z,4.67
2023-02-02T16:12:36.426Z,4.85
2023-02-02T16:15:26.867Z,4.74
2023-02-02T16:18:16.600Z,4.84
2023-02-02T16:21:03.598Z,4.82
2023-02-02T16:23:49.204Z,4.73
2023-02-02T16:26:34.589Z,4.99
2023-02-02T16:29:20.279Z,5.27
2023-02-02T16:32:05.566Z,5.23
2023-02-02T16:34:50.125Z,5.17
2023-02-02T16:37:36.574Z,5.07
2023-02-02T16:40:27.315Z,4.87
2023-02-02T16:43:19.234Z,5.01
2023-02-02T16:46:09.034Z,4.91
2023-02-02T16:49:00.585Z,4.86
2023-02-02T16:51:45.077Z,4.86
2023-02-02T16:54:28.922Z,4.47
2023-02-02T16:57:20.729Z,4.40
2023-02-02T17:00:09.181Z,4.33
2023-02-02T17:02:58.496Z,4.15
2023-02-02T17:05:50.845Z,4.40
2023-02-02T17:08:36.540Z,3.18
2023-02-02T17:11:24.413Z,3.91
2023-02-02T17:14:20.712Z,4.20
2023-02-02T17:17:06.238Z,4.40
2023-02-02T17:19:51.954Z,4.15
2023-02-02T17:22:39.300Z,4.01
2023-02-02T17:25:28.678Z,4.01
2023-02-02T17:28:13.942Z,3.90
2023-02-02T17:31:01.030Z,3.97
2023-02-02T17:33:44.932Z,3.97
2023-02-02T17:36:30.207Z,3.80
2023-02-02T17:39:14.101Z,3.73
2023-02-02T17:41:58.514Z,3.90
2023-02-02T17:44:42.306Z,3.76
2023-02-02T17:47:26.029Z,3.64
2023-02-02T17:50:11.011Z,3.61
2023-02-02T17:52:56.730Z,3.49
2023-02-02T17:55:42.604Z,3.49
2023-02-02T17:58:26.447Z,3.48
2023-02-02T18:01:12.751Z,3.33
2023-02-02T18:03:56.710Z,3.41
2023-02-02T18:06:40.533Z,3.37
2023-02-02T18:09:25.633Z,3.19
2023-02-02T18:12:09.621Z,3.21
2023-02-02T18:14:53.396Z,3.15
2023-02-02T18:17:37.195Z,3.26
2023-02-02T18:20:20.904Z,3.12
2023-02-02T18:23:04.720Z,3.27
2023-02-02T18:25:49.872Z,3.25
2023-02-02T18:28:34.376Z,3.25
2023-02-02T18:31:20.572Z,3.11
2023-02-02T18:34:04.380Z,2.95
2023-02-02T18:36:48.257Z,3.12
2023-02-02T18:39:32.318Z,3.06
2023-02-02T18:42:17.524Z,3.01
2023-02-02T18:45:01.760Z,3.12
2023-02-02T18:47:47.322Z,3.11
2023-02-02T18:50:31.465Z,3.04
2023-02-02T18:53:17.954Z,3.07
2023-02-02T18:56:06.068Z,3.10
2023-02-02T18:58:51.654Z,3.14
2023-02-02T19:01:36.601Z,2.72
2023-02-02T19:04:20.438Z,3.10
2023-02-02T19:07:23.806Z,3.03
2023-02-02T19:10:09.588Z,3.01
2023-02-02T19:12:56.820Z,2.80
2023-02-02T19:15:43.068Z,3.17
2023-02-02T19:18:26.970Z,3.26
2023-02-02T19:21:13.008Z,3.28
2023-02-02T19:23:56.866Z,3.28
2023-02-02T19:26:45.608Z,3.09
2023-02-02T19:29:37.193Z,3.32
2023-02-02T19:32:25.084Z,3.23
2023-02-02T19:35:19.005Z,3.23
2023-02-02T19:38:04.118Z,3.12
2023-02-02T19:40:48.135Z,3.18
2023-02-02T19:43:33.212Z,3.19
2023-02-02T19:46:22.554Z,3.14
2023-02-02T19:49:14.374Z,3.09
2023-02-02T19:51:59.456Z,3.12
2023-02-02T19:54:45.166Z,2.80
2023-02-02T19:57:36.594Z,2.93
2023-02-02T20:00:23.686Z,2.67
2023-02-02T20:03:11.227Z,2.96
2023-02-02T20:05:58.221Z,2.85
2023-02-02T20:08:43.734Z,2.78
2023-02-02T20:11:33.085Z,2.95
2023-02-02T20:14:30.230Z,2.71
2023-02-02T20:17:17.652Z,2.68
2023-02-02T20:20:01.780Z,2.62
2023-02-02T20:22:48.503Z,2.67
2023-02-02T20:25:32.883Z,2.52
2023-02-02T20:28:35.959Z,2.41
2023-02-02T20:31:22.518Z,2.40
2023-02-02T20:34:23.836Z,2.47
2023-02-02T20:37:22.313Z,2.27
2023-02-02T20:40:25.274Z,2.37
2023-02-02T20:43:09.272Z,2.45
2023-02-02T20:45:53.205Z,2.54
2023-02-02T20:48:37.002Z,2.51
2023-02-02T20:51:20.984Z,2.48
2023-02-02T20:54:04.949Z,2.50
2023-02-02T20:56:50.739Z,2.58
2023-02-02T20:59:34.589Z,2.29
2023-02-02T21:02:19.867Z,2.50
2023-02-02T21:05:03.766Z,2.43
2023-02-02T21:07:47.984Z,2.62
2023-02-02T21:10:31.852Z,2.40
2023-02-02T21:13:17.155Z,2.55
2023-02-02T21:16:00.974Z,2.45
2023-02-02T21:18:47.291Z,2.51
2023-02-02T21:21:31.581Z,2.43
2023-02-02T21:24:15.723Z,2.42
2023-02-02T21:27:00.629Z,2.63
2023-02-02T21:29:45.988Z,2.73
2023-02-02T21:32:29.983Z,2.60
2023-02-02T21:35:15.199Z,2.64
2023-02-02T21:38:01.868Z,2.88
2023-02-02T21:40:47.273Z,2.53
2023-02-02T21:43:30.969Z,2.70
2023-02-02T21:46:20.004Z,2.62
2023-02-02T21:49:04.837Z,2.53
2023-02-02T21:51:48.721Z,2.80
2023-02-02T21:54:38.075Z,2.79
2023-02-02T21:57:24.028Z,2.62
2023-02-02T22:00:23.412Z,2.74
2023-02-02T22:03:23.974Z,2.62
2023-02-02T22:06:22.943Z,2.59
2023-02-02T22:09:16.876Z,2.56
2023-02-02T22:12:02.381Z,2.51
2023-02-02T22:14:47.757Z,2.44
2023-02-02T22:17:40.713Z,2.42
2023-02-02T22:20:34.007Z,2.37
2023-02-02T22:23:19.740Z,2.17
2023-02-02T22:26:04.067Z,2.37
2023-02-02T22:28:47.917Z,1.91
2023-02-02T22:31:31.770Z,2.34
2023-02-02T22:34:15.707Z,2.50
2023-02-02T22:37:00.894Z,2.21
2023-02-02T22:39:44.753Z,2.26
2023-02-02T22:42:28.503Z,2.16
2023-02-02T22:45:12.651Z,2.26
2023-02-02T22:47:56.559Z,1.99
2023-02-02T22:50:41.543Z,1.89
2023-02-02T22:53:26.694Z,2.10
2023-02-02T22:56:10.625Z,1.94
2023-02-02T22:58:54.423Z,1.93
2023-02-02T23:01:38.158Z,2.16
2023-02-02T23:04:22.339Z,1.96
2023-02-02T23:07:06.046Z,1.96
2023-02-02T23:09:51.159Z,1.48
2023-02-02T23:12:35.155Z,1.90
2023-02-02T23:15:21.107Z,1.87
2023-02-02T23:18:05.352Z,1.65
2023-02-02T23:20:50.510Z,1.73
2023-02-02T23:23:34.448Z,1.82
2023-02-02T23:26:19.619Z,1.80
2023-02-02T23:29:03.598Z,1.62
2023-02-02T23:31:47.511Z,1.54
2023-02-02T23:34:31.500Z,1.62
2023-02-02T23:37:15.699Z,1.62
2023-02-02T23:39:59.905Z,1.50
2023-02-02T23:42:45.150Z,1.42
2023-02-02T23:45:29.254Z,1.21
2023-02-02T23:48:13.967Z,1.50
2023-02-02T23:50:58.110Z,1.38
2023-02-02T23:53:43.082Z,1.46
2023-02-02T23:56:27.252Z,1.37
2023-02-02T23:59:13.189Z,1.21
